Terminal Aerodrome Forecast
Issued by NWS

Home | Current Version | Previous Version | Text Only | Print | Product List | Glossary On
Versions: 1 2 3 4 5 6 7 8 9 10 11 12 13 14 15 16 17 18 19 20
000
FTUS43 KILX 262330
TAFCMI
TAF
KCMI 262330Z 2700/2724 22008KT P6SM VCTS SCT025CB BKN050
     FM270100 VRB05KT P6SM BKN050
     FM270600 VRB05KT 4SM BR SCT050
      TEMPO 2709/2713 2SM BR BKN008
     FM271500 04009KT P6SM SCT025
     FM271900 09009KT P6SM SCT025=

USA.gov is the U.S. government's official web portal to all federal, state and local government web resources and services.